sensor_id;sensor_type;location;lat;lon;timestamp;P1;durP1;ratioP1;P2;durP2;ratioP2
68940;SDS011;55982;51.476;7.552;2023-05-10T00:01:39;4.85;;;2.90;;
68940;SDS011;55982;51.476;7.552;2023-05-10T00:04:05;3.38;;;2.90;;
68940;SDS011;55982;51.476;7.552;2023-05-10T00:06:31;4.68;;;2.70;;
68940;SDS011;55982;51.476;7.552;2023-05-10T00:08:56;2.88;;;2.40;;
68940;SDS011;55982;51.476;7.552;2023-05-10T00:11:22;8.93;;;2.45;;
68940;SDS011;55982;51.476;7.552;2023-05-10T00:13:47;3.15;;;2.45;;
68940;SDS011;55982;51.476;7.552;2023-05-10T00:16:12;5.93;;;2.83;;
68940;SDS011;55982;51.476;7.552;2023-05-10T00:18:38;4.53;;;3.20;;
68940;SDS011;55982;51.476;7.552;2023-05-10T00:21:04;4.60;;;3.17;;
68940;SDS011;55982;51.476;7.552;2023-05-10T00:23:30;5.00;;;3.40;;
68940;SDS011;55982;51.476;7.552;2023-05-10T00:25:55;6.95;;;3.58;;
68940;SDS011;55982;51.476;7.552;2023-05-10T00:28:21;7.88;;;3.55;;
68940;SDS011;55982;51.476;7.552;2023-05-10T00:30:46;5.88;;;3.38;;
68940;SDS011;55982;51.476;7.552;2023-05-10T00:33:11;5.82;;;4.20;;
68940;SDS011;55982;51.476;7.552;2023-05-10T00:35:37;6.45;;;4.20;;
68940;SDS011;55982;51.476;7.552;2023-05-10T00:38:03;7.45;;;4.57;;
68940;SDS011;55982;51.476;7.552;2023-05-10T00:40:28;9.95;;;5.13;;
68940;SDS011;55982;51.476;7.552;2023-05-10T00:42:55;9.95;;;5.60;;
68940;SDS011;55982;51.476;7.552;2023-05-10T00:45:21;8.95;;;5.90;;
68940;SDS011;55982;51.476;7.552;2023-05-10T00:47:47;12.00;;;5.72;;
68940;SDS011;55982;51.476;7.552;2023-05-10T00:50:12;10.70;;;5.80;;
68940;SDS011;55982;51.476;7.552;2023-05-10T00:52:39;11.77;;;6.85;;
68940;SDS011;55982;51.476;7.552;2023-05-10T00:55:05;13.05;;;7.10;;
68940;SDS011;55982;51.476;7.552;2023-05-10T00:57:31;13.25;;;7.75;;
68940;SDS011;55982;51.476;7.552;2023-05-10T00:59:57;11.18;;;7.63;;
68940;SDS011;55982;51.476;7.552;2023-05-10T01:02:22;15.68;;;8.43;;
68940;SDS011;55982;51.476;7.552;2023-05-10T01:04:49;18.50;;;9.20;;
68940;SDS011;55982;51.476;7.552;2023-05-10T01:07:14;14.35;;;8.38;;
68940;SDS011;55982;51.476;7.552;2023-05-10T01:09:40;16.77;;;8.63;;
68940;SDS011;55982;51.476;7.552;2023-05-10T01:12:05;16.83;;;9.02;;
68940;SDS011;55982;51.476;7.552;2023-05-10T01:14:32;15.60;;;9.45;;
68940;SDS011;55982;51.476;7.552;2023-05-10T01:16:58;13.95;;;8.73;;
68940;SDS011;55982;51.476;7.552;2023-05-10T01:19:26;17.17;;;8.93;;
68940;SDS011;55982;51.476;7.552;2023-05-10T01:22:07;14.18;;;7.72;;
68940;SDS011;55982;51.476;7.552;2023-05-10T01:39:40;21.17;;;11.20;;
68940;SDS011;55982;51.476;7.552;2023-05-10T01:42:08;23.33;;;11.70;;
68940;SDS011;55982;51.476;7.552;2023-05-10T01:47:05;26.52;;;12.82;;
68940;SDS011;55982;51.476;7.552;2023-05-10T01:49:39;24.38;;;12.50;;
68940;SDS011;55982;51.476;7.552;2023-05-10T01:52:09;24.63;;;11.75;;
68940;SDS011;55982;51.476;7.552;2023-05-10T01:54:41;26.23;;;11.95;;
68940;SDS011;55982;51.476;7.552;2023-05-10T01:57:10;23.17;;;11.55;;
68940;SDS011;55982;51.476;7.552;2023-05-10T01:59:39;26.77;;;12.32;;
68940;SDS011;55982;51.476;7.552;2023-05-10T02:02:07;29.17;;;13.50;;
68940;SDS011;55982;51.476;7.552;2023-05-10T02:04:37;21.33;;;12.15;;
68940;SDS011;55982;51.476;7.552;2023-05-10T02:07:03;25.92;;;12.77;;
68940;SDS011;55982;51.476;7.552;2023-05-10T02:09:30;25.42;;;12.77;;
68940;SDS011;55982;51.476;7.552;2023-05-10T02:11:57;27.77;;;13.77;;
68940;SDS011;55982;51.476;7.552;2023-05-10T02:14:24;29.52;;;14.25;;
68940;SDS011;55982;51.476;7.552;2023-05-10T02:16:51;29.77;;;13.43;;
68940;SDS011;55982;51.476;7.552;2023-05-10T02:19:20;25.80;;;12.93;;
68940;SDS011;55982;51.476;7.552;2023-05-10T02:21:48;25.15;;;12.75;;
68940;SDS011;55982;51.476;7.552;2023-05-10T02:24:16;24.65;;;13.05;;
68940;SDS011;55982;51.476;7.552;2023-05-10T02:26:43;26.67;;;12.50;;
68940;SDS011;55982;51.476;7.552;2023-05-10T02:29:10;23.27;;;11.75;;
68940;SDS011;55982;51.476;7.552;2023-05-10T02:31:37;21.92;;;11.68;;
68940;SDS011;55982;51.476;7.552;2023-05-10T02:34:03;25.52;;;12.45;;
68940;SDS011;55982;51.476;7.552;2023-05-10T02:36:31;23.27;;;12.20;;
68940;SDS011;55982;51.476;7.552;2023-05-10T02:38:57;24.90;;;12.40;;
68940;SDS011;55982;51.476;7.552;2023-05-10T02:41:26;22.63;;;11.90;;
68940;SDS011;55982;51.476;7.552;2023-05-10T02:43:56;19.83;;;11.23;;
68940;SDS011;55982;51.476;7.552;2023-05-10T02:46:24;18.25;;;9.52;;
68940;SDS011;55982;51.476;7.552;2023-05-10T02:48:49;11.65;;;6.63;;
68940;SDS011;55982;51.476;7.552;2023-05-10T02:51:15;15.30;;;7.75;;
68940;SDS011;55982;51.476;7.552;2023-05-10T02:53:43;11.55;;;6.15;;
68940;SDS011;55982;51.476;7.552;2023-05-10T02:56:12;8.77;;;5.07;;
68940;SDS011;55982;51.476;7.552;2023-05-10T02:58:42;12.88;;;5.90;;
68940;SDS011;55982;51.476;7.552;2023-05-10T03:01:07;9.10;;;5.28;;
68940;SDS011;55982;51.476;7.552;2023-05-10T03:03:33;10.68;;;5.05;;
68940;SDS011;55982;51.476;7.552;2023-05-10T03:05:58;8.57;;;4.20;;
68940;SDS011;55982;51.476;7.552;2023-05-10T03:08:24;7.82;;;4.50;;
68940;SDS011;55982;51.476;7.552;2023-05-10T03:16:43;7.95;;;3.95;;
68940;SDS011;55982;51.476;7.552;2023-05-10T03:19:27;6.10;;;3.80;;
68940;SDS011;55982;51.476;7.552;2023-05-10T03:21:58;7.45;;;3.80;;
68940;SDS011;55982;51.476;7.552;2023-05-10T03:24:28;7.45;;;4.53;;
68940;SDS011;55982;51.476;7.552;2023-05-10T03:26:55;7.13;;;4.25;;
68940;SDS011;55982;51.476;7.552;2023-05-10T03:29:25;7.78;;;4.47;;
68940;SDS011;55982;51.476;7.552;2023-05-10T03:31:51;8.82;;;4.97;;
68940;SDS011;55982;51.476;7.552;2023-05-10T03:34:16;8.65;;;5.10;;
68940;SDS011;55982;51.476;7.552;2023-05-10T03:36:42;9.65;;;4.97;;
68940;SDS011;55982;51.476;7.552;2023-05-10T03:39:07;10.95;;;5.43;;
68940;SDS011;55982;51.476;7.552;2023-05-10T03:41:33;10.70;;;4.97;;
68940;SDS011;55982;51.476;7.552;2023-05-10T03:43:58;7.20;;;4.22;;
68940;SDS011;55982;51.476;7.552;2023-05-10T03:46:24;8.40;;;4.30;;
68940;SDS011;55982;51.476;7.552;2023-05-10T03:48:49;9.00;;;4.93;;
68940;SDS011;55982;51.476;7.552;2023-05-10T03:51:14;7.32;;;4.70;;
68940;SDS011;55982;51.476;7.552;2023-05-10T03:53:39;9.23;;;4.88;;
68940;SDS011;55982;51.476;7.552;2023-05-10T03:56:05;8.13;;;4.80;;
68940;SDS011;55982;51.476;7.552;2023-05-10T03:58:30;8.50;;;5.03;;
68940;SDS011;55982;51.476;7.552;2023-05-10T04:00:56;11.43;;;5.35;;
68940;SDS011;55982;51.476;7.552;2023-05-10T04:03:21;13.90;;;7.35;;
68940;SDS011;55982;51.476;7.552;2023-05-10T04:05:47;16.23;;;9.07;;
68940;SDS011;55982;51.476;7.552;2023-05-10T04:08:12;20.33;;;10.65;;
68940;SDS011;55982;51.476;7.552;2023-05-10T04:10:37;26.90;;;11.70;;
68940;SDS011;55982;51.476;7.552;2023-05-10T04:13:03;37.42;;;15.52;;
68940;SDS011;55982;51.476;7.552;2023-05-10T04:15:28;36.05;;;17.55;;
68940;SDS011;55982;51.476;7.552;2023-05-10T04:17:53;38.70;;;17.95;;
68940;SDS011;55982;51.476;7.552;2023-05-10T04:20:19;43.53;;;18.35;;
68940;SDS011;55982;51.476;7.552;2023-05-10T04:22:44;41.85;;;19.55;;
68940;SDS011;55982;51.476;7.552;2023-05-10T04:25:09;45.90;;;20.50;;
68940;SDS011;55982;51.476;7.552;2023-05-10T04:27:35;45.67;;;20.77;;
68940;SDS011;55982;51.476;7.552;2023-05-10T04:30:00;47.38;;;19.88;;
68940;SDS011;55982;51.476;7.552;2023-05-10T04:32:27;42.28;;;20.10;;
68940;SDS011;55982;51.476;7.552;2023-05-10T04:34:53;46.88;;;20.42;;
68940;SDS011;55982;51.476;7.552;2023-05-10T04:37:18;48.28;;;19.70;;
68940;SDS011;55982;51.476;7.552;2023-05-10T04:39:43;44.75;;;20.77;;
68940;SDS011;55982;51.476;7.552;2023-05-10T04:42:09;44.47;;;20.25;;
68940;SDS011;55982;51.476;7.552;2023-05-10T04:44:34;46.67;;;19.58;;
68940;SDS011;55982;51.476;7.552;2023-05-10T04:47:00;37.85;;;18.90;;
68940;SDS011;55982;51.476;7.552;2023-05-10T04:49:27;34.15;;;17.52;;
68940;SDS011;55982;51.476;7.552;2023-05-10T04:51:52;37.72;;;18.88;;
68940;SDS011;55982;51.476;7.552;2023-05-10T04:54:18;31.17;;;15.82;;
68940;SDS011;55982;51.476;7.552;2023-05-10T04:56:43;33.28;;;15.68;;
68940;SDS011;55982;51.476;7.552;2023-05-10T04:59:08;32.95;;;16.00;;
68940;SDS011;55982;51.476;7.552;2023-05-10T05:01:34;29.65;;;15.85;;
68940;SDS011;55982;51.476;7.552;2023-05-10T05:03:59;28.20;;;14.73;;
68940;SDS011;55982;51.476;7.552;2023-05-10T05:06:25;34.45;;;16.67;;
68940;SDS011;55982;51.476;7.552;2023-05-10T05:08:52;31.95;;;16.08;;
68940;SDS011;55982;51.476;7.552;2023-05-10T05:11:17;34.85;;;17.45;;
68940;SDS011;55982;51.476;7.552;2023-05-10T05:13:42;35.90;;;17.23;;
68940;SDS011;55982;51.476;7.552;2023-05-10T05:16:08;34.35;;;18.73;;
68940;SDS011;55982;51.476;7.552;2023-05-10T05:18:33;38.50;;;17.50;;
68940;SDS011;55982;51.476;7.552;2023-05-10T05:20:59;42.60;;;19.30;;
68940;SDS011;55982;51.476;7.552;2023-05-10T05:23:24;45.33;;;21.70;;
68940;SDS011;55982;51.476;7.552;2023-05-10T05:25:53;46.72;;;22.30;;
68940;SDS011;55982;51.476;7.552;2023-05-10T05:28:19;46.88;;;22.60;;
68940;SDS011;55982;51.476;7.552;2023-05-10T05:30:46;49.38;;;24.08;;
68940;SDS011;55982;51.476;7.552;2023-05-10T05:33:13;54.85;;;25.05;;
68940;SDS011;55982;51.476;7.552;2023-05-10T05:35:39;53.95;;;24.08;;
68940;SDS011;55982;51.476;7.552;2023-05-10T05:38:04;64.25;;;27.20;;
68940;SDS011;55982;51.476;7.552;2023-05-10T05:40:30;57.90;;;25.98;;
68940;SDS011;55982;51.476;7.552;2023-05-10T05:42:55;61.88;;;28.23;;
68940;SDS011;55982;51.476;7.552;2023-05-10T05:45:20;68.10;;;30.00;;
68940;SDS011;55982;51.476;7.552;2023-05-10T05:47:46;56.38;;;25.20;;
68940;SDS011;55982;51.476;7.552;2023-05-10T05:50:12;60.63;;;27.13;;
68940;SDS011;55982;51.476;7.552;2023-05-10T05:52:37;64.15;;;28.02;;
68940;SDS011;55982;51.476;7.552;2023-05-10T05:55:03;67.30;;;26.92;;
68940;SDS011;55982;51.476;7.552;2023-05-10T05:57:28;76.60;;;30.00;;
68940;SDS011;55982;51.476;7.552;2023-05-10T05:59:54;71.03;;;29.35;;
68940;SDS011;55982;51.476;7.552;2023-05-10T06:02:19;70.28;;;30.63;;
68940;SDS011;55982;51.476;7.552;2023-05-10T06:04:44;58.15;;;28.30;;
68940;SDS011;55982;51.476;7.552;2023-05-10T06:07:10;63.72;;;29.08;;
68940;SDS011;55982;51.476;7.552;2023-05-10T06:09:35;62.13;;;29.30;;
68940;SDS011;55982;51.476;7.552;2023-05-10T06:12:00;60.53;;;29.80;;
68940;SDS011;55982;51.476;7.552;2023-05-10T06:14:26;64.18;;;28.73;;
68940;SDS011;55982;51.476;7.552;2023-05-10T06:16:52;58.17;;;28.52;;
68940;SDS011;55982;51.476;7.552;2023-05-10T06:19:17;55.42;;;27.25;;
68940;SDS011;55982;51.476;7.552;2023-05-10T06:21:43;59.40;;;28.60;;
68940;SDS011;55982;51.476;7.552;2023-05-10T06:24:08;62.75;;;29.00;;
68940;SDS011;55982;51.476;7.552;2023-05-10T06:26:33;58.75;;;29.23;;
68940;SDS011;55982;51.476;7.552;2023-05-10T06:28:59;61.38;;;28.55;;
68940;SDS011;55982;51.476;7.552;2023-05-10T06:31:24;65.90;;;28.98;;
68940;SDS011;55982;51.476;7.552;2023-05-10T06:33:50;62.30;;;29.38;;
68940;SDS011;55982;51.476;7.552;2023-05-10T06:36:15;62.30;;;28.10;;
68940;SDS011;55982;51.476;7.552;2023-05-10T06:38:41;56.78;;;27.70;;
68940;SDS011;55982;51.476;7.552;2023-05-10T06:41:06;52.45;;;28.48;;
68940;SDS011;55982;51.476;7.552;2023-05-10T06:43:31;53.78;;;27.30;;
68940;SDS011;55982;51.476;7.552;2023-05-10T06:45:57;61.25;;;28.92;;
68940;SDS011;55982;51.476;7.552;2023-05-10T06:48:22;54.78;;;28.13;;
68940;SDS011;55982;51.476;7.552;2023-05-10T06:50:48;59.47;;;28.15;;
68940;SDS011;55982;51.476;7.552;2023-05-10T06:53:13;58.28;;;29.27;;
68940;SDS011;55982;51.476;7.552;2023-05-10T06:55:39;61.13;;;29.75;;
68940;SDS011;55982;51.476;7.552;2023-05-10T06:58:04;61.60;;;29.00;;
68940;SDS011;55982;51.476;7.552;2023-05-10T07:00:30;61.88;;;29.27;;
68940;SDS011;55982;51.476;7.552;2023-05-10T07:02:55;65.05;;;30.02;;
68940;SDS011;55982;51.476;7.552;2023-05-10T07:05:20;59.78;;;29.77;;
68940;SDS011;55982;51.476;7.552;2023-05-10T07:07:46;65.07;;;30.27;;
68940;SDS011;55982;51.476;7.552;2023-05-10T07:10:11;63.88;;;32.42;;
68940;SDS011;55982;51.476;7.552;2023-05-10T07:12:37;64.50;;;30.77;;
68940;SDS011;55982;51.476;7.552;2023-05-10T07:15:03;65.85;;;31.20;;
68940;SDS011;55982;51.476;7.552;2023-05-10T07:17:29;62.67;;;31.50;;
68940;SDS011;55982;51.476;7.552;2023-05-10T07:19:54;63.40;;;31.20;;
68940;SDS011;55982;51.476;7.552;2023-05-10T07:22:20;52.72;;;29.30;;
68940;SDS011;55982;51.476;7.552;2023-05-10T07:24:45;54.70;;;29.50;;
68940;SDS011;55982;51.476;7.552;2023-05-10T07:27:11;41.90;;;25.63;;
68940;SDS011;55982;51.476;7.552;2023-05-10T07:29:36;40.28;;;24.88;;
68940;SDS011;55982;51.476;7.552;2023-05-10T07:32:02;37.70;;;24.35;;
68940;SDS011;55982;51.476;7.552;2023-05-10T07:34:27;43.75;;;25.35;;
68940;SDS011;55982;51.476;7.552;2023-05-10T07:36:55;43.72;;;25.52;;
68940;SDS011;55982;51.476;7.552;2023-05-10T07:39:20;41.78;;;24.30;;
68940;SDS011;55982;51.476;7.552;2023-05-10T07:41:45;40.40;;;23.75;;
68940;SDS011;55982;51.476;7.552;2023-05-10T07:44:11;38.38;;;24.33;;
68940;SDS011;55982;51.476;7.552;2023-05-10T07:46:36;33.85;;;22.25;;
68940;SDS011;55982;51.476;7.552;2023-05-10T07:49:04;35.60;;;21.23;;
68940;SDS011;55982;51.476;7.552;2023-05-10T07:51:30;36.40;;;22.25;;
68940;SDS011;55982;51.476;7.552;2023-05-10T07:53:55;31.10;;;20.00;;
68940;SDS011;55982;51.476;7.552;2023-05-10T07:56:26;32.70;;;20.15;;
68940;SDS011;55982;51.476;7.552;2023-05-10T07:58:54;26.90;;;18.05;;
68940;SDS011;55982;51.476;7.552;2023-05-10T08:01:20;31.63;;;19.42;;
68940;SDS011;55982;51.476;7.552;2023-05-10T08:03:46;30.23;;;18.10;;
68940;SDS011;55982;51.476;7.552;2023-05-10T08:06:12;24.60;;;17.08;;
68940;SDS011;55982;51.476;7.552;2023-05-10T08:08:38;23.88;;;16.95;;
68940;SDS011;55982;51.476;7.552;2023-05-10T08:11:03;20.77;;;15.35;;
68940;SDS011;55982;51.476;7.552;2023-05-10T08:13:29;23.52;;;15.35;;
68940;SDS011;55982;51.476;7.552;2023-05-10T08:15:54;24.05;;;15.32;;
68940;SDS011;55982;51.476;7.552;2023-05-10T08:18:19;27.30;;;17.27;;
68940;SDS011;55982;51.476;7.552;2023-05-10T08:20:45;29.75;;;18.75;;
68940;SDS011;55982;51.476;7.552;2023-05-10T08:23:12;32.35;;;19.83;;
68940;SDS011;55982;51.476;7.552;2023-05-10T08:25:37;32.28;;;20.33;;
68940;SDS011;55982;51.476;7.552;2023-05-10T08:28:03;40.25;;;21.45;;
68940;SDS011;55982;51.476;7.552;2023-05-10T08:30:28;34.17;;;20.90;;
68940;SDS011;55982;51.476;7.552;2023-05-10T08:32:54;38.20;;;22.33;;
68940;SDS011;55982;51.476;7.552;2023-05-10T08:35:19;35.63;;;21.08;;
68940;SDS011;55982;51.476;7.552;2023-05-10T08:37:44;31.80;;;20.45;;
68940;SDS011;55982;51.476;7.552;2023-05-10T08:40:11;32.80;;;19.42;;
68940;SDS011;55982;51.476;7.552;2023-05-10T08:42:36;28.40;;;18.17;;
68940;SDS011;55982;51.476;7.552;2023-05-10T08:45:06;23.55;;;14.02;;
68940;SDS011;55982;51.476;7.552;2023-05-10T08:47:32;18.67;;;11.85;;
68940;SDS011;55982;51.476;7.552;2023-05-10T08:49:59;17.13;;;11.00;;
68940;SDS011;55982;51.476;7.552;2023-05-10T08:52:25;16.02;;;10.80;;
68940;SDS011;55982;51.476;7.552;2023-05-10T08:54:52;17.33;;;11.82;;
68940;SDS011;55982;51.476;7.552;2023-05-10T08:57:18;19.65;;;12.23;;
68940;SDS011;55982;51.476;7.552;2023-05-10T08:59:44;18.58;;;12.15;;
68940;SDS011;55982;51.476;7.552;2023-05-10T09:02:09;18.25;;;11.30;;
68940;SDS011;55982;51.476;7.552;2023-05-10T09:04:36;18.25;;;11.30;;
68940;SDS011;55982;51.476;7.552;2023-05-10T09:07:01;19.20;;;10.98;;
68940;SDS011;55982;51.476;7.552;2023-05-10T09:09:27;17.25;;;10.55;;
68940;SDS011;55982;51.476;7.552;2023-05-10T09:11:53;19.17;;;10.20;;
68940;SDS011;55982;51.476;7.552;2023-05-10T09:14:19;17.88;;;10.55;;
68940;SDS011;55982;51.476;7.552;2023-05-10T09:16:45;20.05;;;11.38;;
68940;SDS011;55982;51.476;7.552;2023-05-10T09:19:10;16.90;;;9.82;;
68940;SDS011;55982;51.476;7.552;2023-05-10T09:21:36;16.98;;;9.95;;
68940;SDS011;55982;51.476;7.552;2023-05-10T09:24:05;18.80;;;10.32;;
68940;SDS011;55982;51.476;7.552;2023-05-10T09:26:31;17.15;;;10.50;;
68940;SDS011;55982;51.476;7.552;2023-05-10T09:28:58;17.25;;;10.85;;
68940;SDS011;55982;51.476;7.552;2023-05-10T09:31:24;19.35;;;11.70;;
68940;SDS011;55982;51.476;7.552;2023-05-10T09:34:08;23.60;;;13.23;;
68940;SDS011;55982;51.476;7.552;2023-05-10T09:36:34;21.38;;;13.27;;
68940;SDS011;55982;51.476;7.552;2023-05-10T09:38:59;23.95;;;14.18;;
68940;SDS011;55982;51.476;7.552;2023-05-10T09:41:25;21.45;;;13.57;;
68940;SDS011;55982;51.476;7.552;2023-05-10T09:43:52;23.92;;;13.30;;
68940;SDS011;55982;51.476;7.552;2023-05-10T09:46:21;19.40;;;12.45;;
68940;SDS011;55982;51.476;7.552;2023-05-10T09:48:47;20.90;;;11.93;;
68940;SDS011;55982;51.476;7.552;2023-05-10T09:51:21;21.95;;;13.18;;
68940;SDS011;55982;51.476;7.552;2023-05-10T09:53:48;20.40;;;12.73;;
68940;SDS011;55982;51.476;7.552;2023-05-10T09:56:33;20.77;;;12.93;;
68940;SDS011;55982;51.476;7.552;2023-05-10T09:59:03;20.67;;;12.63;;
68940;SDS011;55982;51.476;7.552;2023-05-10T10:01:29;20.45;;;11.48;;
68940;SDS011;55982;51.476;7.552;2023-05-10T10:03:55;17.10;;;9.98;;
68940;SDS011;55982;51.476;7.552;2023-05-10T10:06:22;12.77;;;8.60;;
68940;SDS011;55982;51.476;7.552;2023-05-10T10:08:48;11.65;;;7.85;;
68940;SDS011;55982;51.476;7.552;2023-05-10T10:11:15;9.27;;;6.22;;
68940;SDS011;55982;51.476;7.552;2023-05-10T10:13:40;8.57;;;6.30;;
68940;SDS011;55982;51.476;7.552;2023-05-10T10:16:06;9.32;;;6.10;;
68940;SDS011;55982;51.476;7.552;2023-05-10T10:18:33;10.95;;;6.25;;
68940;SDS011;55982;51.476;7.552;2023-05-10T10:20:58;11.23;;;6.38;;
68940;SDS011;55982;51.476;7.552;2023-05-10T10:23:24;9.18;;;6.50;;
68940;SDS011;55982;51.476;7.552;2023-05-10T10:25:50;9.77;;;6.00;;
68940;SDS011;55982;51.476;7.552;2023-05-10T10:30:51;10.00;;;6.35;;
68940;SDS011;55982;51.476;7.552;2023-05-10T10:36:20;12.98;;;6.75;;
68940;SDS011;55982;51.476;7.552;2023-05-10T10:41:26;10.30;;;6.35;;
68940;SDS011;55982;51.476;7.552;2023-05-10T10:49:51;13.02;;;7.40;;
68940;SDS011;55982;51.476;7.552;2023-05-10T10:57:23;14.30;;;7.82;;
68940;SDS011;55982;51.476;7.552;2023-05-10T10:59:48;16.63;;;9.15;;
68940;SDS011;55982;51.476;7.552;2023-05-10T11:02:32;16.23;;;9.35;;
68940;SDS011;55982;51.476;7.552;2023-05-10T11:05:22;17.33;;;9.45;;
68940;SDS011;55982;51.476;7.552;2023-05-10T11:08:11;13.55;;;8.88;;
68940;SDS011;55982;51.476;7.552;2023-05-10T11:10:37;20.75;;;11.48;;
68940;SDS011;55982;51.476;7.552;2023-05-10T11:13:04;20.35;;;11.98;;
68940;SDS011;55982;51.476;7.552;2023-05-10T11:17:57;27.27;;;13.65;;
68940;SDS011;55982;51.476;7.552;2023-05-10T11:20:22;25.05;;;14.75;;
68940;SDS011;55982;51.476;7.552;2023-05-10T11:22:53;21.33;;;13.57;;
68940;SDS011;55982;51.476;7.552;2023-05-10T11:25:19;22.52;;;13.45;;
68940;SDS011;55982;51.476;7.552;2023-05-10T11:27:47;25.20;;;14.10;;
68940;SDS011;55982;51.476;7.552;2023-05-10T11:30:13;22.40;;;12.63;;
68940;SDS011;55982;51.476;7.552;2023-05-10T11:32:40;21.42;;;12.38;;
68940;SDS011;55982;51.476;7.552;2023-05-10T11:35:09;19.98;;;11.48;;
68940;SDS011;55982;51.476;7.552;2023-05-10T11:37:35;16.70;;;11.43;;
68940;SDS011;55982;51.476;7.552;2023-05-10T11:40:01;18.25;;;11.48;;
68940;SDS011;55982;51.476;7.552;2023-05-10T11:42:27;18.25;;;11.10;;
68940;SDS011;55982;51.476;7.552;2023-05-10T11:44:53;21.23;;;12.45;;
68940;SDS011;55982;51.476;7.552;2023-05-10T11:47:19;16.35;;;10.90;;
68940;SDS011;55982;51.476;7.552;2023-05-10T11:49:45;17.27;;;10.18;;
68940;SDS011;55982;51.476;7.552;2023-05-10T11:52:11;13.98;;;9.63;;
68940;SDS011;55982;51.476;7.552;2023-05-10T11:54:36;17.08;;;10.68;;
68940;SDS011;55982;51.476;7.552;2023-05-10T11:57:02;14.55;;;9.63;;
68940;SDS011;55982;51.476;7.552;2023-05-10T11:59:28;16.10;;;9.90;;
68940;SDS011;55982;51.476;7.552;2023-05-10T12:01:53;18.45;;;10.65;;
68940;SDS011;55982;51.476;7.552;2023-05-10T12:04:19;15.38;;;9.68;;
68940;SDS011;55982;51.476;7.552;2023-05-10T12:06:45;17.77;;;11.35;;
68940;SDS011;55982;51.476;7.552;2023-05-10T12:09:12;20.63;;;13.20;;
68940;SDS011;55982;51.476;7.552;2023-05-10T12:11:39;20.88;;;13.88;;
68940;SDS011;55982;51.476;7.552;2023-05-10T12:14:05;24.13;;;14.27;;
68940;SDS011;55982;51.476;7.552;2023-05-10T12:16:31;22.17;;;14.18;;
68940;SDS011;55982;51.476;7.552;2023-05-10T12:18:57;23.88;;;15.55;;
68940;SDS011;55982;51.476;7.552;2023-05-10T12:21:26;26.90;;;16.65;;
68940;SDS011;55982;51.476;7.552;2023-05-10T12:23:54;25.10;;;16.15;;
68940;SDS011;55982;51.476;7.552;2023-05-10T12:26:24;24.65;;;15.75;;
68940;SDS011;55982;51.476;7.552;2023-05-10T12:28:51;20.25;;;14.20;;
68940;SDS011;55982;51.476;7.552;2023-05-10T12:31:17;20.92;;;13.38;;
68940;SDS011;55982;51.476;7.552;2023-05-10T12:33:43;21.98;;;13.95;;
68940;SDS011;55982;51.476;7.552;2023-05-10T12:36:10;20.15;;;13.85;;
68940;SDS011;55982;51.476;7.552;2023-05-10T12:38:40;19.77;;;13.48;;
68940;SDS011;55982;51.476;7.552;2023-05-10T12:41:16;19.30;;;13.27;;
68940;SDS011;55982;51.476;7.552;2023-05-10T12:43:42;17.92;;;12.50;;
68940;SDS011;55982;51.476;7.552;2023-05-10T12:46:11;16.35;;;12.13;;
68940;SDS011;55982;51.476;7.552;2023-05-10T12:48:38;15.82;;;10.90;;
68940;SDS011;55982;51.476;7.552;2023-05-10T12:51:05;15.05;;;11.05;;
68940;SDS011;55982;51.476;7.552;2023-05-10T12:53:34;12.57;;;9.73;;
68940;SDS011;55982;51.476;7.552;2023-05-10T12:56:00;13.25;;;9.20;;
68940;SDS011;55982;51.476;7.552;2023-05-10T12:58:25;11.55;;;8.88;;
68940;SDS011;55982;51.476;7.552;2023-05-10T13:00:51;14.77;;;8.52;;
68940;SDS011;55982;51.476;7.552;2023-05-10T13:03:16;17.13;;;10.05;;
68940;SDS011;55982;51.476;7.552;2023-05-10T13:05:42;17.13;;;11.15;;
68940;SDS011;55982;51.476;7.552;2023-05-10T13:08:07;16.73;;;10.63;;
68940;SDS011;55982;51.476;7.552;2023-05-10T13:10:32;16.33;;;11.32;;
68940;SDS011;55982;51.476;7.552;2023-05-10T13:12:58;18.48;;;12.98;;
68940;SDS011;55982;51.476;7.552;2023-05-10T13:15:23;15.73;;;11.80;;
68940;SDS011;55982;51.476;7.552;2023-05-10T13:17:50;14.82;;;10.48;;
68940;SDS011;55982;51.476;7.552;2023-05-10T13:20:15;15.23;;;10.10;;
68940;SDS011;55982;51.476;7.552;2023-05-10T13:22:41;13.80;;;9.77;;
68940;SDS011;55982;51.476;7.552;2023-05-10T13:25:07;15.27;;;10.10;;
68940;SDS011;55982;51.476;7.552;2023-05-10T13:27:33;13.23;;;9.48;;
68940;SDS011;55982;51.476;7.552;2023-05-10T13:29:58;13.45;;;9.38;;
68940;SDS011;55982;51.476;7.552;2023-05-10T13:32:24;12.15;;;8.95;;
68940;SDS011;55982;51.476;7.552;2023-05-10T13:34:50;14.30;;;9.40;;
68940;SDS011;55982;51.476;7.552;2023-05-10T13:37:16;10.85;;;8.38;;
68940;SDS011;55982;51.476;7.552;2023-05-10T13:39:41;9.05;;;7.65;;
68940;SDS011;55982;51.476;7.552;2023-05-10T13:42:06;12.13;;;8.25;;
68940;SDS011;55982;51.476;7.552;2023-05-10T13:44:32;9.75;;;7.13;;
68940;SDS011;55982;51.476;7.552;2023-05-10T13:46:58;11.45;;;7.63;;
68940;SDS011;55982;51.476;7.552;2023-05-10T13:49:24;11.93;;;8.52;;
68940;SDS011;55982;51.476;7.552;2023-05-10T13:51:49;12.10;;;8.73;;
68940;SDS011;55982;51.476;7.552;2023-05-10T13:54:15;12.20;;;8.40;;
68940;SDS011;55982;51.476;7.552;2023-05-10T13:56:44;10.55;;;7.75;;
68940;SDS011;55982;51.476;7.552;2023-05-10T13:59:09;12.05;;;8.75;;
68940;SDS011;55982;51.476;7.552;2023-05-10T14:01:35;10.88;;;8.52;;
68940;SDS011;55982;51.476;7.552;2023-05-10T14:04:01;11.77;;;8.02;;
68940;SDS011;55982;51.476;7.552;2023-05-10T14:06:26;12.35;;;9.18;;
68940;SDS011;55982;51.476;7.552;2023-05-10T14:08:52;15.05;;;10.15;;
68940;SDS011;55982;51.476;7.552;2023-05-10T14:11:18;14.48;;;11.27;;
68940;SDS011;55982;51.476;7.552;2023-05-10T14:13:43;14.65;;;10.43;;
68940;SDS011;55982;51.476;7.552;2023-05-10T14:16:09;13.88;;;10.00;;
68940;SDS011;55982;51.476;7.552;2023-05-10T14:18:34;13.57;;;10.50;;
68940;SDS011;55982;51.476;7.552;2023-05-10T14:21:01;17.58;;;9.93;;
68940;SDS011;55982;51.476;7.552;2023-05-10T14:23:27;11.55;;;9.50;;
68940;SDS011;55982;51.476;7.552;2023-05-10T14:25:53;17.75;;;9.90;;
68940;SDS011;55982;51.476;7.552;2023-05-10T14:28:22;15.02;;;11.35;;
68940;SDS011;55982;51.476;7.552;2023-05-10T14:30:48;15.00;;;10.52;;
68940;SDS011;55982;51.476;7.552;2023-05-10T14:33:14;16.45;;;11.40;;
68940;SDS011;55982;51.476;7.552;2023-05-10T14:35:39;20.73;;;12.88;;
68940;SDS011;55982;51.476;7.552;2023-05-10T14:38:05;13.15;;;10.20;;
68940;SDS011;55982;51.476;7.552;2023-05-10T14:40:30;17.15;;;11.07;;
68940;SDS011;55982;51.476;7.552;2023-05-10T14:42:56;13.30;;;10.27;;
68940;SDS011;55982;51.476;7.552;2023-05-10T14:45:21;14.18;;;10.68;;
68940;SDS011;55982;51.476;7.552;2023-05-10T14:47:48;12.63;;;9.63;;
68940;SDS011;55982;51.476;7.552;2023-05-10T14:50:14;11.98;;;9.43;;
68940;SDS011;55982;51.476;7.552;2023-05-10T14:52:39;11.18;;;8.50;;
68940;SDS011;55982;51.476;7.552;2023-05-10T14:55:04;8.82;;;7.00;;
68940;SDS011;55982;51.476;7.552;2023-05-10T14:57:30;9.75;;;6.05;;
68940;SDS011;55982;51.476;7.552;2023-05-10T14:59:57;8.07;;;5.78;;
68940;SDS011;55982;51.476;7.552;2023-05-10T15:02:22;6.13;;;4.95;;
68940;SDS011;55982;51.476;7.552;2023-05-10T15:04:48;7.25;;;4.70;;
68940;SDS011;55982;51.476;7.552;2023-05-10T15:07:13;8.07;;;5.28;;
68940;SDS011;55982;51.476;7.552;2023-05-10T15:09:41;6.88;;;4.70;;